sensor_id;sensor_type;location;lat;lon;timestamp;P1;durP1;ratioP1;P2;durP2;ratioP2
59408;SDS011;45213;32.654;-115.458;2023-02-01T00:00:52;1.90;;;0.82;;
59408;SDS011;45213;32.654;-115.458;2023-02-01T00:03:19;4.10;;;1.00;;
59408;SDS011;45213;32.654;-115.458;2023-02-01T00:05:54;5.95;;;1.00;;
59408;SDS011;45213;32.654;-115.458;2023-02-01T00:08:22;1.00;;;0.80;;
59408;SDS011;45213;32.654;-115.458;2023-02-01T00:10:57;5.15;;;0.90;;
59408;SDS011;45213;32.654;-115.458;2023-02-01T00:13:34;3.63;;;0.80;;
59408;SDS011;45213;32.654;-115.458;2023-02-01T00:16:27;5.93;;;0.90;;
59408;SDS011;45213;32.654;-115.458;2023-02-01T00:18:58;5.38;;;1.10;;
59408;SDS011;45213;32.654;-115.458;2023-02-01T00:21:26;6.72;;;2.67;;
59408;SDS011;45213;32.654;-115.458;2023-02-01T00:23:53;11.32;;;3.47;;
59408;SDS011;45213;32.654;-115.458;2023-02-01T00:26:25;6.78;;;3.22;;
59408;SDS011;45213;32.654;-115.458;2023-02-01T00:28:53;9.85;;;3.40;;
59408;SDS011;45213;32.654;-115.458;2023-02-01T00:31:20;4.43;;;1.55;;
59408;SDS011;45213;32.654;-115.458;2023-02-01T00:33:47;9.07;;;2.60;;
59408;SDS011;45213;32.654;-115.458;2023-02-01T00:36:14;3.05;;;0.95;;
59408;SDS011;45213;32.654;-115.458;2023-02-01T00:38:41;5.95;;;1.63;;
59408;SDS011;45213;32.654;-115.458;2023-02-01T00:43:44;6.00;;;2.00;;
59408;SDS011;45213;32.654;-115.458;2023-02-01T00:46:12;3.65;;;2.17;;
59408;SDS011;45213;32.654;-115.458;2023-02-01T00:48:40;5.43;;;2.20;;
59408;SDS011;45213;32.654;-115.458;2023-02-01T00:51:09;7.82;;;4.35;;
59408;SDS011;45213;32.654;-115.458;2023-02-01T00:53:39;9.15;;;4.90;;
59408;SDS011;45213;32.654;-115.458;2023-02-01T00:56:05;10.00;;;4.82;;
59408;SDS011;45213;32.654;-115.458;2023-02-01T00:58:32;11.45;;;5.55;;
59408;SDS011;45213;32.654;-115.458;2023-02-01T01:01:19;9.45;;;3.40;;
59408;SDS011;45213;32.654;-115.458;2023-02-01T01:03:47;10.35;;;3.65;;
59408;SDS011;45213;32.654;-115.458;2023-02-01T01:06:17;7.72;;;3.67;;
59408;SDS011;45213;32.654;-115.458;2023-02-01T01:08:52;5.65;;;3.22;;
59408;SDS011;45213;32.654;-115.458;2023-02-01T01:11:23;12.73;;;3.05;;
59408;SDS011;45213;32.654;-115.458;2023-02-01T01:13:52;5.68;;;3.05;;
59408;SDS011;45213;32.654;-115.458;2023-02-01T01:16:20;7.03;;;2.78;;
59408;SDS011;45213;32.654;-115.458;2023-02-01T01:18:48;10.50;;;3.25;;
59408;SDS011;45213;32.654;-115.458;2023-02-01T01:21:15;8.88;;;3.17;;
59408;SDS011;45213;32.654;-115.458;2023-02-01T01:23:43;8.55;;;3.38;;
59408;SDS011;45213;32.654;-115.458;2023-02-01T01:26:18;6.63;;;2.95;;
59408;SDS011;45213;32.654;-115.458;2023-02-01T01:28:50;9.13;;;3.83;;
59408;SDS011;45213;32.654;-115.458;2023-02-01T01:31:18;16.48;;;4.55;;
59408;SDS011;45213;32.654;-115.458;2023-02-01T01:33:50;9.20;;;3.10;;
59408;SDS011;45213;32.654;-115.458;2023-02-01T01:36:19;8.93;;;3.63;;
59408;SDS011;45213;32.654;-115.458;2023-02-01T01:38:46;10.40;;;3.83;;
59408;SDS011;45213;32.654;-115.458;2023-02-01T01:41:14;9.35;;;3.63;;
59408;SDS011;45213;32.654;-115.458;2023-02-01T01:43:46;5.95;;;3.38;;
59408;SDS011;45213;32.654;-115.458;2023-02-01T01:46:26;9.52;;;4.18;;
59408;SDS011;45213;32.654;-115.458;2023-02-01T01:49:05;10.88;;;4.97;;
59408;SDS011;45213;32.654;-115.458;2023-02-01T01:51:40;11.48;;;4.13;;
59408;SDS011;45213;32.654;-115.458;2023-02-01T01:56:58;10.23;;;4.30;;
59408;SDS011;45213;32.654;-115.458;2023-02-01T01:59:29;9.90;;;3.88;;
59408;SDS011;45213;32.654;-115.458;2023-02-01T02:02:01;6.57;;;3.40;;
59408;SDS011;45213;32.654;-115.458;2023-02-01T02:04:28;11.88;;;3.60;;
59408;SDS011;45213;32.654;-115.458;2023-02-01T02:06:58;14.45;;;3.95;;
59408;SDS011;45213;32.654;-115.458;2023-02-01T02:09:30;9.10;;;4.40;;
59408;SDS011;45213;32.654;-115.458;2023-02-01T02:11:56;10.52;;;4.50;;
59408;SDS011;45213;32.654;-115.458;2023-02-01T02:14:24;9.25;;;3.63;;
59408;SDS011;45213;32.654;-115.458;2023-02-01T02:39:38;11.88;;;5.85;;
59408;SDS011;45213;32.654;-115.458;2023-02-01T02:45:12;12.23;;;6.18;;
59408;SDS011;45213;32.654;-115.458;2023-02-01T02:56:57;7.53;;;4.03;;
59408;SDS011;45213;32.654;-115.458;2023-02-01T02:59:46;10.90;;;3.90;;
59408;SDS011;45213;32.654;-115.458;2023-02-01T03:02:32;8.65;;;3.65;;
59408;SDS011;45213;32.654;-115.458;2023-02-01T03:05:18;9.63;;;3.65;;
59408;SDS011;45213;32.654;-115.458;2023-02-01T03:18:50;13.95;;;4.93;;
59408;SDS011;45213;32.654;-115.458;2023-02-01T03:23:56;9.57;;;5.28;;
59408;SDS011;45213;32.654;-115.458;2023-02-01T03:26:28;16.48;;;6.18;;
59408;SDS011;45213;32.654;-115.458;2023-02-01T03:29:00;9.85;;;5.47;;
59408;SDS011;45213;32.654;-115.458;2023-02-01T03:31:34;12.93;;;5.65;;
59408;SDS011;45213;32.654;-115.458;2023-02-01T03:34:01;15.93;;;6.60;;
59408;SDS011;45213;32.654;-115.458;2023-02-01T03:36:30;10.35;;;5.90;;
59408;SDS011;45213;32.654;-115.458;2023-02-01T03:39:52;16.80;;;6.53;;
59408;SDS011;45213;32.654;-115.458;2023-02-01T03:42:14;12.65;;;6.90;;
59408;SDS011;45213;32.654;-115.458;2023-02-01T03:44:49;13.82;;;6.65;;
59408;SDS011;45213;32.654;-115.458;2023-02-01T03:47:23;16.20;;;6.97;;
59408;SDS011;45213;32.654;-115.458;2023-02-01T03:49:59;11.18;;;7.47;;
59408;SDS011;45213;32.654;-115.458;2023-02-01T03:52:39;10.95;;;6.93;;
59408;SDS011;45213;32.654;-115.458;2023-02-01T03:55:14;12.32;;;6.72;;
59408;SDS011;45213;32.654;-115.458;2023-02-01T03:57:43;21.88;;;7.85;;
59408;SDS011;45213;32.654;-115.458;2023-02-01T04:00:27;15.60;;;7.18;;
59408;SDS011;45213;32.654;-115.458;2023-02-01T04:02:56;15.90;;;7.28;;
59408;SDS011;45213;32.654;-115.458;2023-02-01T04:05:23;14.45;;;7.43;;
59408;SDS011;45213;32.654;-115.458;2023-02-01T04:08:10;13.32;;;7.22;;
59408;SDS011;45213;32.654;-115.458;2023-02-01T04:10:36;17.98;;;7.25;;
59408;SDS011;45213;32.654;-115.458;2023-02-01T04:13:03;14.95;;;7.95;;
59408;SDS011;45213;32.654;-115.458;2023-02-01T04:15:29;22.02;;;8.07;;
59408;SDS011;45213;32.654;-115.458;2023-02-01T04:17:56;18.30;;;8.40;;
59408;SDS011;45213;32.654;-115.458;2023-02-01T04:20:22;16.92;;;9.57;;
59408;SDS011;45213;32.654;-115.458;2023-02-01T04:22:49;20.67;;;11.25;;
59408;SDS011;45213;32.654;-115.458;2023-02-01T04:25:16;15.40;;;10.43;;
59408;SDS011;45213;32.654;-115.458;2023-02-01T04:27:45;15.27;;;10.27;;
59408;SDS011;45213;32.654;-115.458;2023-02-01T04:30:12;20.55;;;9.90;;
59408;SDS011;45213;32.654;-115.458;2023-02-01T04:32:40;11.35;;;8.50;;
59408;SDS011;45213;32.654;-115.458;2023-02-01T04:35:07;12.60;;;8.15;;
59408;SDS011;45213;32.654;-115.458;2023-02-01T04:37:34;13.07;;;6.80;;
59408;SDS011;45213;32.654;-115.458;2023-02-01T04:40:01;14.45;;;7.55;;
59408;SDS011;45213;32.654;-115.458;2023-02-01T04:42:29;9.85;;;7.80;;
59408;SDS011;45213;32.654;-115.458;2023-02-01T04:44:55;8.38;;;6.88;;
59408;SDS011;45213;32.654;-115.458;2023-02-01T04:47:22;12.85;;;6.60;;
59408;SDS011;45213;32.654;-115.458;2023-02-01T04:49:49;9.95;;;6.50;;
59408;SDS011;45213;32.654;-115.458;2023-02-01T04:52:15;11.65;;;6.55;;
59408;SDS011;45213;32.654;-115.458;2023-02-01T04:54:42;13.75;;;6.57;;
59408;SDS011;45213;32.654;-115.458;2023-02-01T04:57:08;8.90;;;5.65;;
59408;SDS011;45213;32.654;-115.458;2023-02-01T04:59:35;10.38;;;5.90;;
59408;SDS011;45213;32.654;-115.458;2023-02-01T05:02:01;12.65;;;6.20;;
59408;SDS011;45213;32.654;-115.458;2023-02-01T05:04:28;13.63;;;6.25;;
59408;SDS011;45213;32.654;-115.458;2023-02-01T05:06:54;11.23;;;5.90;;
59408;SDS011;45213;32.654;-115.458;2023-02-01T05:09:21;9.82;;;5.63;;
59408;SDS011;45213;32.654;-115.458;2023-02-01T05:11:48;11.93;;;7.20;;
59408;SDS011;45213;32.654;-115.458;2023-02-01T05:14:33;15.00;;;8.45;;
59408;SDS011;45213;32.654;-115.458;2023-02-01T05:16:59;15.10;;;8.95;;
59408;SDS011;45213;32.654;-115.458;2023-02-01T05:19:26;12.32;;;9.00;;
59408;SDS011;45213;32.654;-115.458;2023-02-01T05:21:53;18.08;;;10.15;;
59408;SDS011;45213;32.654;-115.458;2023-02-01T05:24:19;15.98;;;10.43;;
59408;SDS011;45213;32.654;-115.458;2023-02-01T05:26:46;21.95;;;11.15;;
59408;SDS011;45213;32.654;-115.458;2023-02-01T05:29:14;23.70;;;12.23;;
59408;SDS011;45213;32.654;-115.458;2023-02-01T05:31:43;19.60;;;11.80;;
59408;SDS011;45213;32.654;-115.458;2023-02-01T05:34:13;24.17;;;13.45;;
59408;SDS011;45213;32.654;-115.458;2023-02-01T05:36:41;19.13;;;12.30;;
59408;SDS011;45213;32.654;-115.458;2023-02-01T05:39:07;18.73;;;12.68;;
59408;SDS011;45213;32.654;-115.458;2023-02-01T05:41:34;22.33;;;13.55;;
59408;SDS011;45213;32.654;-115.458;2023-02-01T05:44:01;24.77;;;13.60;;
59408;SDS011;45213;32.654;-115.458;2023-02-01T05:46:28;21.23;;;12.57;;
59408;SDS011;45213;32.654;-115.458;2023-02-01T05:48:54;23.33;;;12.75;;
59408;SDS011;45213;32.654;-115.458;2023-02-01T05:51:21;22.73;;;12.77;;
59408;SDS011;45213;32.654;-115.458;2023-02-01T05:53:48;22.73;;;12.63;;
59408;SDS011;45213;32.654;-115.458;2023-02-01T05:56:14;25.02;;;12.70;;
59408;SDS011;45213;32.654;-115.458;2023-02-01T05:58:41;20.77;;;11.73;;
59408;SDS011;45213;32.654;-115.458;2023-02-01T06:01:07;25.55;;;12.73;;
59408;SDS011;45213;32.654;-115.458;2023-02-01T06:03:34;19.95;;;11.20;;
59408;SDS011;45213;32.654;-115.458;2023-02-01T06:06:01;17.17;;;10.95;;
59408;SDS011;45213;32.654;-115.458;2023-02-01T06:08:28;19.42;;;10.90;;
59408;SDS011;45213;32.654;-115.458;2023-02-01T06:11:01;21.80;;;10.55;;
59408;SDS011;45213;32.654;-115.458;2023-02-01T06:13:29;13.13;;;8.75;;
59408;SDS011;45213;32.654;-115.458;2023-02-01T06:15:56;13.40;;;7.65;;
59408;SDS011;45213;32.654;-115.458;2023-02-01T06:18:24;9.27;;;6.82;;
59408;SDS011;45213;32.654;-115.458;2023-02-01T06:20:57;9.07;;;5.93;;
59408;SDS011;45213;32.654;-115.458;2023-02-01T06:23:26;11.20;;;5.97;;
59408;SDS011;45213;32.654;-115.458;2023-02-01T06:26:01;12.98;;;5.35;;
59408;SDS011;45213;32.654;-115.458;2023-02-01T06:28:30;6.60;;;4.38;;
59408;SDS011;45213;32.654;-115.458;2023-02-01T06:30:58;8.80;;;4.20;;
59408;SDS011;45213;32.654;-115.458;2023-02-01T06:33:29;5.53;;;3.43;;
59408;SDS011;45213;32.654;-115.458;2023-02-01T06:35:56;8.45;;;3.70;;
59408;SDS011;45213;32.654;-115.458;2023-02-01T06:38:24;3.90;;;3.45;;
59408;SDS011;45213;32.654;-115.458;2023-02-01T06:40:52;4.95;;;4.10;;
59408;SDS011;45213;32.654;-115.458;2023-02-01T06:43:21;3.33;;;2.85;;
59408;SDS011;45213;32.654;-115.458;2023-02-01T06:45:48;6.22;;;3.00;;
59408;SDS011;45213;32.654;-115.458;2023-02-01T06:48:15;4.40;;;2.85;;
59408;SDS011;45213;32.654;-115.458;2023-02-01T06:50:42;5.15;;;2.80;;
59408;SDS011;45213;32.654;-115.458;2023-02-01T06:53:08;4.00;;;2.10;;
59408;SDS011;45213;32.654;-115.458;2023-02-01T06:55:35;2.30;;;1.40;;
59408;SDS011;45213;32.654;-115.458;2023-02-01T06:58:02;2.42;;;1.20;;
59408;SDS011;45213;32.654;-115.458;2023-02-01T07:00:29;3.47;;;1.30;;
59408;SDS011;45213;32.654;-115.458;2023-02-01T07:02:57;3.50;;;0.90;;
59408;SDS011;45213;32.654;-115.458;2023-02-01T07:05:25;2.67;;;0.85;;
59408;SDS011;45213;32.654;-115.458;2023-02-01T07:07:52;1.58;;;0.90;;
59408;SDS011;45213;32.654;-115.458;2023-02-01T07:10:18;2.33;;;0.70;;
59408;SDS011;45213;32.654;-115.458;2023-02-01T07:12:45;3.55;;;0.80;;
59408;SDS011;45213;32.654;-115.458;2023-02-01T07:15:11;1.40;;;0.65;;
59408;SDS011;45213;32.654;-115.458;2023-02-01T07:17:38;2.72;;;0.80;;
59408;SDS011;45213;32.654;-115.458;2023-02-01T07:20:05;2.03;;;0.80;;
59408;SDS011;45213;32.654;-115.458;2023-02-01T07:22:32;2.65;;;1.10;;
59408;SDS011;45213;32.654;-115.458;2023-02-01T07:24:58;3.35;;;1.10;;
59408;SDS011;45213;32.654;-115.458;2023-02-01T07:27:25;2.92;;;1.20;;
59408;SDS011;45213;32.654;-115.458;2023-02-01T07:29:52;4.53;;;1.42;;
59408;SDS011;45213;32.654;-115.458;2023-02-01T07:32:19;3.38;;;1.27;;
59408;SDS011;45213;32.654;-115.458;2023-02-01T07:34:45;1.85;;;1.05;;
59408;SDS011;45213;32.654;-115.458;2023-02-01T07:37:12;3.08;;;1.58;;
59408;SDS011;45213;32.654;-115.458;2023-02-01T07:39:38;1.25;;;1.15;;
59408;SDS011;45213;32.654;-115.458;2023-02-01T07:42:05;3.35;;;1.30;;
59408;SDS011;45213;32.654;-115.458;2023-02-01T07:44:32;3.22;;;1.30;;
59408;SDS011;45213;32.654;-115.458;2023-02-01T07:46:59;3.13;;;1.67;;
59408;SDS011;45213;32.654;-115.458;2023-02-01T07:49:25;2.88;;;1.80;;
59408;SDS011;45213;32.654;-115.458;2023-02-01T07:51:52;3.67;;;1.63;;
59408;SDS011;45213;32.654;-115.458;2023-02-01T07:54:19;8.02;;;1.90;;
59408;SDS011;45213;32.654;-115.458;2023-02-01T07:56:45;2.92;;;1.70;;
59408;SDS011;45213;32.654;-115.458;2023-02-01T07:59:12;3.92;;;2.00;;
59408;SDS011;45213;32.654;-115.458;2023-02-01T08:01:39;2.22;;;1.73;;
59408;SDS011;45213;32.654;-115.458;2023-02-01T08:04:05;2.90;;;1.90;;
59408;SDS011;45213;32.654;-115.458;2023-02-01T08:06:33;2.22;;;1.83;;
59408;SDS011;45213;32.654;-115.458;2023-02-01T08:09:00;4.45;;;2.08;;
59408;SDS011;45213;32.654;-115.458;2023-02-01T08:11:27;4.85;;;2.97;;
59408;SDS011;45213;32.654;-115.458;2023-02-01T08:13:54;3.15;;;2.35;;
59408;SDS011;45213;32.654;-115.458;2023-02-01T08:16:22;6.88;;;2.67;;
59408;SDS011;45213;32.654;-115.458;2023-02-01T08:18:49;4.57;;;2.58;;
59408;SDS011;45213;32.654;-115.458;2023-02-01T08:21:20;4.55;;;2.72;;
59408;SDS011;45213;32.654;-115.458;2023-02-01T08:23:48;3.22;;;2.10;;
59408;SDS011;45213;32.654;-115.458;2023-02-01T08:26:19;6.30;;;2.50;;
59408;SDS011;45213;32.654;-115.458;2023-02-01T08:28:49;3.15;;;2.40;;
59408;SDS011;45213;32.654;-115.458;2023-02-01T08:31:18;2.97;;;1.98;;
59408;SDS011;45213;32.654;-115.458;2023-02-01T08:33:51;2.72;;;2.30;;
59408;SDS011;45213;32.654;-115.458;2023-02-01T08:36:19;5.18;;;2.00;;
59408;SDS011;45213;32.654;-115.458;2023-02-01T08:38:46;2.80;;;2.05;;
59408;SDS011;45213;32.654;-115.458;2023-02-01T08:41:14;6.72;;;2.15;;
59408;SDS011;45213;32.654;-115.458;2023-02-01T08:43:43;3.67;;;2.40;;
59408;SDS011;45213;32.654;-115.458;2023-02-01T08:46:10;5.40;;;2.65;;
59408;SDS011;45213;32.654;-115.458;2023-02-01T08:48:38;3.28;;;2.40;;
59408;SDS011;45213;32.654;-115.458;2023-02-01T08:51:05;5.10;;;2.47;;
59408;SDS011;45213;32.654;-115.458;2023-02-01T08:53:37;3.28;;;2.17;;
59408;SDS011;45213;32.654;-115.458;2023-02-01T08:56:07;3.92;;;2.30;;
59408;SDS011;45213;32.654;-115.458;2023-02-01T08:58:34;4.20;;;2.25;;
59408;SDS011;45213;32.654;-115.458;2023-02-01T09:01:04;3.65;;;1.88;;
59408;SDS011;45213;32.654;-115.458;2023-02-01T09:03:32;3.50;;;2.25;;
59408;SDS011;45213;32.654;-115.458;2023-02-01T09:06:02;7.75;;;2.28;;
59408;SDS011;45213;32.654;-115.458;2023-02-01T09:08:33;6.30;;;2.30;;
59408;SDS011;45213;32.654;-115.458;2023-02-01T09:11:01;5.30;;;2.13;;
59408;SDS011;45213;32.654;-115.458;2023-02-01T09:13:29;2.47;;;1.67;;
59408;SDS011;45213;32.654;-115.458;2023-02-01T09:15:56;5.40;;;2.17;;
59408;SDS011;45213;32.654;-115.458;2023-02-01T09:18:25;5.30;;;2.00;;
59408;SDS011;45213;32.654;-115.458;2023-02-01T09:20:52;7.53;;;2.53;;
59408;SDS011;45213;32.654;-115.458;2023-02-01T09:23:18;5.18;;;2.10;;
59408;SDS011;45213;32.654;-115.458;2023-02-01T09:25:48;7.13;;;2.10;;
59408;SDS011;45213;32.654;-115.458;2023-02-01T09:28:17;4.00;;;2.03;;
59408;SDS011;45213;32.654;-115.458;2023-02-01T09:30:44;3.90;;;2.10;;
59408;SDS011;45213;32.654;-115.458;2023-02-01T09:33:11;5.35;;;2.00;;
59408;SDS011;45213;32.654;-115.458;2023-02-01T09:35:38;3.90;;;1.83;;
59408;SDS011;45213;32.654;-115.458;2023-02-01T09:38:04;4.30;;;2.00;;
59408;SDS011;45213;32.654;-115.458;2023-02-01T09:40:32;7.72;;;2.20;;
59408;SDS011;45213;32.654;-115.458;2023-02-01T09:43:21;8.77;;;3.17;;
59408;SDS011;45213;32.654;-115.458;2023-02-01T09:46:30;6.22;;;3.92;;
59408;SDS011;45213;32.654;-115.458;2023-02-01T09:49:22;7.30;;;3.30;;
59408;SDS011;45213;32.654;-115.458;2023-02-01T09:51:52;9.50;;;5.05;;
59408;SDS011;45213;32.654;-115.458;2023-02-01T09:54:24;14.13;;;7.68;;
59408;SDS011;45213;32.654;-115.458;2023-02-01T09:57:04;15.90;;;8.57;;
59408;SDS011;45213;32.654;-115.458;2023-02-01T09:59:38;15.75;;;8.35;;
59408;SDS011;45213;32.654;-115.458;2023-02-01T10:02:27;19.33;;;9.38;;
59408;SDS011;45213;32.654;-115.458;2023-02-01T10:04:54;16.38;;;9.52;;
59408;SDS011;45213;32.654;-115.458;2023-02-01T10:15:21;16.30;;;8.75;;
59408;SDS011;45213;32.654;-115.458;2023-02-01T10:18:11;15.73;;;8.23;;
59408;SDS011;45213;32.654;-115.458;2023-02-01T10:21:02;12.63;;;8.48;;
59408;SDS011;45213;32.654;-115.458;2023-02-01T10:23:44;12.48;;;7.35;;
59408;SDS011;45213;32.654;-115.458;2023-02-01T10:28:49;9.23;;;6.25;;
59408;SDS011;45213;32.654;-115.458;2023-02-01T10:31:18;11.70;;;6.57;;
59408;SDS011;45213;32.654;-115.458;2023-02-01T10:33:50;14.53;;;6.97;;
59408;SDS011;45213;32.654;-115.458;2023-02-01T10:36:23;13.52;;;7.68;;
59408;SDS011;45213;32.654;-115.458;2023-02-01T10:39:06;14.00;;;8.68;;
59408;SDS011;45213;32.654;-115.458;2023-02-01T10:41:38;13.15;;;9.02;;
59408;SDS011;45213;32.654;-115.458;2023-02-01T10:44:09;14.30;;;8.48;;
59408;SDS011;45213;32.654;-115.458;2023-02-01T10:46:56;13.13;;;8.77;;
59408;SDS011;45213;32.654;-115.458;2023-02-01T10:49:31;13.80;;;8.32;;
59408;SDS011;45213;32.654;-115.458;2023-02-01T10:54:43;17.73;;;10.98;;
59408;SDS011;45213;32.654;-115.458;2023-02-01T10:57:10;18.60;;;12.15;;
59408;SDS011;45213;32.654;-115.458;2023-02-01T10:59:50;21.77;;;12.65;;
59408;SDS011;45213;32.654;-115.458;2023-02-01T11:02:25;21.85;;;13.88;;
59408;SDS011;45213;32.654;-115.458;2023-02-01T11:04:59;20.25;;;12.90;;
59408;SDS011;45213;32.654;-115.458;2023-02-01T11:07:31;20.77;;;13.02;;
59408;SDS011;45213;32.654;-115.458;2023-02-01T11:09:58;18.40;;;13.15;;
59408;SDS011;45213;32.654;-115.458;2023-02-01T11:15:42;15.00;;;10.98;;
59408;SDS011;45213;32.654;-115.458;2023-02-01T11:17:50;16.67;;;13.65;;
59408;SDS011;45213;32.654;-115.458;2023-02-01T11:20:19;22.23;;;16.73;;
59408;SDS011;45213;32.654;-115.458;2023-02-01T11:23:00;25.67;;;18.10;;
59408;SDS011;45213;32.654;-115.458;2023-02-01T11:25:27;24.67;;;16.58;;
59408;SDS011;45213;32.654;-115.458;2023-02-01T11:27:55;19.83;;;14.15;;
59408;SDS011;45213;32.654;-115.458;2023-02-01T11:30:36;23.85;;;13.85;;
59408;SDS011;45213;32.654;-115.458;2023-02-01T11:33:07;17.27;;;12.60;;
59408;SDS011;45213;32.654;-115.458;2023-02-01T11:35:41;19.95;;;12.15;;
59408;SDS011;45213;32.654;-115.458;2023-02-01T11:40:44;19.27;;;12.73;;
59408;SDS011;45213;32.654;-115.458;2023-02-01T11:43:27;17.48;;;12.75;;
59408;SDS011;45213;32.654;-115.458;2023-02-01T11:45:59;21.55;;;13.07;;
59408;SDS011;45213;32.654;-115.458;2023-02-01T11:48:40;19.70;;;13.20;;
59408;SDS011;45213;32.654;-115.458;2023-02-01T11:54:18;19.48;;;12.88;;
59408;SDS011;45213;32.654;-115.458;2023-02-01T12:04:44;15.90;;;9.05;;
59408;SDS011;45213;32.654;-115.458;2023-02-01T12:07:40;11.27;;;7.55;;
59408;SDS011;45213;32.654;-115.458;2023-02-01T12:10:18;11.15;;;6.72;;
59408;SDS011;45213;32.654;-115.458;2023-02-01T12:21:52;5.10;;;3.90;;
59408;SDS011;45213;32.654;-115.458;2023-02-01T12:24:27;7.13;;;4.78;;
59408;SDS011;45213;32.654;-115.458;2023-02-01T12:43:43;5.22;;;4.03;;
59408;SDS011;45213;32.654;-115.458;2023-02-01T12:46:31;7.57;;;3.95;;
59408;SDS011;45213;32.654;-115.458;2023-02-01T12:52:14;5.25;;;3.70;;
59408;SDS011;45213;32.654;-115.458;2023-02-01T12:57:31;5.18;;;3.00;;
59408;SDS011;45213;32.654;-115.458;2023-02-01T13:00:14;4.43;;;3.05;;
59408;SDS011;45213;32.654;-115.458;2023-02-01T13:02:55;5.57;;;2.92;;
59408;SDS011;45213;32.654;-115.458;2023-02-01T13:05:47;4.25;;;2.83;;
59408;SDS011;45213;32.654;-115.458;2023-02-01T13:08:25;3.97;;;2.85;;
59408;SDS011;45213;32.654;-115.458;2023-02-01T13:11:12;3.65;;;1.95;;
59408;SDS011;45213;32.654;-115.458;2023-02-01T13:14:05;2.58;;;1.70;;
59408;SDS011;45213;32.654;-115.458;2023-02-01T13:16:41;4.27;;;1.63;;
59408;SDS011;45213;32.654;-115.458;2023-02-01T13:19:24;3.70;;;1.45;;
59408;SDS011;45213;32.654;-115.458;2023-02-01T13:22:14;2.80;;;1.38;;
59408;SDS011;45213;32.654;-115.458;2023-02-01T13:25:13;3.35;;;1.35;;
59408;SDS011;45213;32.654;-115.458;2023-02-01T13:27:45;3.70;;;1.20;;
59408;SDS011;45213;32.654;-115.458;2023-02-01T13:30:30;2.97;;;1.30;;
59408;SDS011;45213;32.654;-115.458;2023-02-01T13:33:21;4.45;;;1.35;;
59408;SDS011;45213;32.654;-115.458;2023-02-01T13:42:25;3.05;;;0.98;;
59408;SDS011;45213;32.654;-115.458;2023-02-01T13:47:28;1.15;;;0.98;;
59408;SDS011;45213;32.654;-115.458;2023-02-01T13:49:59;3.47;;;1.35;;
59408;SDS011;45213;32.654;-115.458;2023-02-01T13:52:40;3.60;;;1.00;;
59408;SDS011;45213;32.654;-115.458;2023-02-01T13:55:14;1.98;;;1.15;;
59408;SDS011;45213;32.654;-115.458;2023-02-01T13:57:52;2.45;;;1.25;;
59408;SDS011;45213;32.654;-115.458;2023-02-01T14:00:33;5.38;;;1.27;;
59408;SDS011;45213;32.654;-115.458;2023-02-01T14:13:28;3.03;;;1.20;;
59408;SDS011;45213;32.654;-115.458;2023-02-01T14:29:02;2.53;;;1.10;;
59408;SDS011;45213;32.654;-115.458;2023-02-01T14:34:18;4.57;;;1.30;;
59408;SDS011;45213;32.654;-115.458;2023-02-01T14:36:50;5.53;;;1.27;;
59408;SDS011;45213;32.654;-115.458;2023-02-01T14:39:24;6.13;;;1.42;;
59408;SDS011;45213;32.654;-115.458;2023-02-01T14:42:02;5.60;;;1.58;;
59408;SDS011;45213;32.654;-115.458;2023-02-01T14:44:33;9.83;;;3.30;;
59408;SDS011;45213;32.654;-115.458;2023-02-01T14:52:19;14.05;;;3.78;;
59408;SDS011;45213;32.654;-115.458;2023-02-01T14:54:54;9.25;;;3.00;;
59408;SDS011;45213;32.654;-115.458;2023-02-01T14:57:24;9.98;;;3.33;;
59408;SDS011;45213;32.654;-115.458;2023-02-01T14:59:56;11.57;;;3.90;;
59408;SDS011;45213;32.654;-115.458;2023-02-01T15:02:30;9.77;;;3.72;;
59408;SDS011;45213;32.654;-115.458;2023-02-01T15:05:02;15.65;;;4.40;;
59408;SDS011;45213;32.654;-115.458;2023-02-01T15:08:19;9.40;;;3.70;;
59408;SDS011;45213;32.654;-115.458;2023-02-01T15:10:51;16.27;;;4.07;;
59408;SDS011;45213;32.654;-115.458;2023-02-01T15:13:19;23.23;;;4.82;;
59408;SDS011;45213;32.654;-115.458;2023-02-01T15:18:48;14.88;;;3.50;;
59408;SDS011;45213;32.654;-115.458;2023-02-01T15:21:17;6.63;;;2.72;;
59408;SDS011;45213;32.654;-115.458;2023-02-01T15:23:45;11.93;;;3.10;;
59408;SDS011;45213;32.654;-115.458;2023-02-01T15:26:30;10.30;;;3.08;;
59408;SDS011;45213;32.654;-115.458;2023-02-01T15:28:58;10.85;;;2.95;;
59408;SDS011;45213;32.654;-115.458;2023-02-01T15:31:37;12.77;;;3.60;;
59408;SDS011;45213;32.654;-115.458;2023-02-01T15:34:06;10.90;;;4.20;;
59408;SDS011;45213;32.654;-115.458;2023-02-01T15:36:33;9.15;;;3.72;;
59408;SDS011;45213;32.654;-115.458;2023-02-01T15:41:46;10.48;;;3.30;;
59408;SDS011;45213;32.654;-115.458;2023-02-01T15:44:52;9.82;;;3.00;;
59408;SDS011;45213;32.654;-115.458;2023-02-01T15:47:16;10.32;;;3.45;;
59408;SDS011;45213;32.654;-115.458;2023-02-01T15:49:46;8.43;;;3.08;;
59408;SDS011;45213;32.654;-115.458;2023-02-01T15:54:50;9.02;;;3.38;;
59408;SDS011;45213;32.654;-115.458;2023-02-01T15:57:24;13.93;;;4.55;;
59408;SDS011;45213;32.654;-115.458;2023-02-01T15:59:57;44.78;;;13.13;;
59408;SDS011;45213;32.654;-115.458;2023-02-01T16:05:01;23.38;;;6.85;;
59408;SDS011;45213;32.654;-115.458;2023-02-01T16:07:30;13.45;;;3.08;;
59408;SDS011;45213;32.654;-115.458;2023-02-01T16:09:58;7.32;;;2.45;;
59408;SDS011;45213;32.654;-115.458;2023-02-01T16:15:14;11.75;;;2.03;;
59408;SDS011;45213;32.654;-115.458;2023-02-01T16:17:40;6.88;;;1.65;;
59408;SDS011;45213;32.654;-115.458;2023-02-01T16:20:08;7.18;;;2.17;;
59408;SDS011;45213;32.654;-115.458;2023-02-01T16:22:35;15.30;;;4.82;;
59408;SDS011;45213;32.654;-115.458;2023-02-01T16:25:02;10.15;;;5.60;;
59408;SDS011;45213;32.654;-115.458;2023-02-01T16:27:29;9.40;;;5.50;;
59408;SDS011;45213;32.654;-115.458;2023-02-01T16:29:55;8.10;;;3.15;;
59408;SDS011;45213;32.654;-115.458;2023-02-01T16:32:22;5.50;;;2.88;;
59408;SDS011;45213;32.654;-115.458;2023-02-01T16:34:49;5.78;;;2.50;;
59408;SDS011;45213;32.654;-115.458;2023-02-01T16:37:24;4.70;;;2.28;;
59408;SDS011;45213;32.654;-115.458;2023-02-01T16:39:53;5.85;;;2.58;;
59408;SDS011;45213;32.654;-115.458;2023-02-01T16:42:20;6.50;;;2.30;;
59408;SDS011;45213;32.654;-115.458;2023-02-01T16:44:47;4.93;;;1.85;;
59408;SDS011;45213;32.654;-115.458;2023-02-01T16:47:15;8.88;;;2.80;;
59408;SDS011;45213;32.654;-115.458;2023-02-01T16:49:46;6.30;;;2.50;;
59408;SDS011;45213;32.654;-115.458;2023-02-01T16:52:20;7.05;;;2.80;;
59408;SDS011;45213;32.654;-115.458;2023-02-01T16:54:49;5.22;;;2.10;;
59408;SDS011;45213;32.654;-115.458;2023-02-01T16:57:17;6.13;;;2.42;;
59408;SDS011;45213;32.654;-115.458;2023-02-01T16:59:49;5.13;;;2.40;;
59408;SDS011;45213;32.654;-115.458;2023-02-01T17:02:16;8.75;;;2.65;;
59408;SDS011;45213;32.654;-115.458;2023-02-01T17:04:48;8.40;;;2.65;;
59408;SDS011;45213;32.654;-115.458;2023-02-01T17:07:15;4.63;;;2.50;;
59408;SDS011;45213;32.654;-115.458;2023-02-01T17:09:44;5.57;;;1.60;;
59408;SDS011;45213;32.654;-115.458;2023-02-01T17:12:19;3.85;;;2.15;;
59408;SDS011;45213;32.654;-115.458;2023-02-01T17:14:55;8.65;;;2.67;;